Time;durP1;ratioP1;P1;durP2;ratioP2;P2;SDS_P1;SDS_P2;PMS_P1;PMS_P2;Temp;Humidity;BMP_temperature;BMP_pressure;BME280_temperature;BME280_humidity;BME280_pressure;Samples;Min_cycle;Max_cycle;Signal;HPM_P1;HPM_P2
2023/05/10 00:00:49;;;;;;;14.50;8.30;;;26.60;99.90;;;;;;1899334;74;21103;-87
2023/05/10 00:03:21;;;;;;;11.50;7.83;;;26.70;99.90;;;;;;1907363;74;21660;-88
2023/05/10 00:05:52;;;;;;;9.78;7.67;;;26.70;99.90;;;;;;1892829;75;21640;-86
2023/05/10 00:08:27;;;;;;;10.32;8.03;;;26.70;99.90;;;;;;1894482;75;21146;-87
2023/05/10 00:10:58;;;;;;;13.30;8.13;;;26.80;99.90;;;;;;1897244;75;21188;-86
2023/05/10 00:13:29;;;;;;;10.80;7.33;;;26.80;99.90;;;;;;1865320;76;21091;-85
2023/05/10 00:16:02;;;;;;;13.70;7.28;;;26.80;99.90;;;;;;1875144;75;21123;-87
2023/05/10 00:18:33;;;;;;;15.08;8.78;;;26.80;99.90;;;;;;1861987;75;21083;-86
2023/05/10 00:21:05;;;;;;;11.80;8.80;;;26.80;99.90;;;;;;1873779;75;21404;-86
2023/05/10 00:23:36;;;;;;;14.90;9.40;;;26.80;99.90;;;;;;1871934;76;21200;-87
2023/05/10 00:26:07;;;;;;;14.60;10.72;;;26.90;99.90;;;;;;1869213;76;21096;-87
2023/05/10 00:28:39;;;;;;;12.50;9.18;;;26.90;99.90;;;;;;1871965;76;21146;-87
2023/05/10 00:31:11;;;;;;;16.73;9.50;;;26.90;99.90;;;;;;1875832;75;21067;-88
2023/05/10 00:33:53;;;;;;;10.40;7.55;;;26.90;99.90;;;;;;1879505;74;21147;-87
2023/05/10 00:36:31;;;;;;;11.35;8.33;;;26.90;99.90;;;;;;1869074;74;21150;-87
2023/05/10 00:39:12;;;;;;;14.78;9.43;;;26.90;99.90;;;;;;1862879;75;21158;-87
2023/05/10 00:42:00;;;;;;;14.10;10.75;;;26.90;99.90;;;;;;1879222;74;21638;-86
2023/05/10 00:44:38;;;;;;;12.55;8.43;;;27.00;99.90;;;;;;1880354;74;21202;-91
2023/05/10 00:47:16;;;;;;;10.60;8.93;;;27.00;99.90;;;;;;1874358;74;21143;-90
2023/05/10 00:49:48;;;;;;;17.48;11.05;;;27.00;99.90;;;;;;1882170;75;21153;-91
2023/05/10 00:52:23;;;;;;;17.27;11.00;;;27.00;99.90;;;;;;1879283;74;21112;-90
2023/05/10 00:54:53;;;;;;;17.40;10.30;;;27.00;99.90;;;;;;1886838;74;21096;-88
2023/05/10 00:57:26;;;;;;;14.80;10.03;;;27.10;99.90;;;;;;1874362;74;21164;-90
2023/05/10 01:00:02;;;;;;;16.45;10.63;;;27.10;99.90;;;;;;1884441;76;22138;-90
2023/05/10 01:02:34;;;;;;;16.62;10.38;;;27.20;99.90;;;;;;1883697;74;21710;-89
2023/05/10 01:05:11;;;;;;;11.55;9.48;;;27.30;99.90;;;;;;1874565;74;21170;-92
2023/05/10 01:07:38;;;;;;;12.23;9.83;;;27.30;99.90;;;;;;1897747;73;21167;-90
2023/05/10 01:10:10;;;;;;;13.55;10.58;;;27.30;99.90;;;;;;1877634;76;21179;-89
2023/05/10 01:12:44;;;;;;;12.98;9.38;;;27.40;99.90;;;;;;1867765;74;21123;-91
2023/05/10 01:15:16;;;;;;;11.80;9.78;;;27.40;99.90;;;;;;1890998;74;21139;-91
2023/05/10 01:17:48;;;;;;;14.53;10.03;;;27.40;99.90;;;;;;1869006;76;21166;-91
2023/05/10 01:20:22;;;;;;;13.72;9.98;;;27.40;99.90;;;;;;1841819;77;21110;-90
2023/05/10 01:23:30;;;;;;;13.60;9.65;;;27.40;99.90;;;;;;1879835;75;21121;-82
2023/05/10 01:26:23;;;;;;;14.50;10.28;;;27.50;99.90;;;;;;1876772;76;21161;-81
2023/05/10 01:29:14;;;;;;;18.10;11.05;;;27.50;99.90;;;;;;1878850;76;21595;-77
2023/05/10 01:32:07;;;;;;;32.67;11.85;;;27.50;99.90;;;;;;1885062;74;21181;-80
2023/05/10 01:34:41;;;;;;;11.45;8.58;;;27.60;99.90;;;;;;1878154;74;21159;-77
2023/05/10 01:37:14;;;;;;;15.95;10.15;;;27.70;99.90;;;;;;1878607;75;21182;-80
2023/05/10 01:39:55;;;;;;;20.80;10.00;;;27.70;99.90;;;;;;1904756;73;21153;-79
2023/05/10 01:42:28;;;;;;;17.05;10.65;;;27.80;99.90;;;;;;1912392;73;21176;-80
2023/05/10 01:45:05;;;;;;;14.83;10.53;;;27.90;99.90;;;;;;1933504;73;21578;-79
2023/05/10 01:47:52;;;;;;;;;;;27.90;99.90;;;;;;1912010;73;21210;-79
2023/05/10 01:50:26;;;;;;;14.90;10.90;;;28.00;99.90;;;;;;1839154;76;20189;-83
2023/05/10 01:53:02;;;;;;;14.53;9.85;;;28.00;99.90;;;;;;1874405;75;21177;-76
2023/05/10 01:55:36;;;;;;;12.78;9.30;;;28.10;99.90;;;;;;1873976;75;21226;-82
2023/05/10 01:58:09;;;;;;;15.35;9.53;;;28.20;99.90;;;;;;1888772;75;21564;-77
2023/05/10 02:00:44;;;;;;;14.10;9.03;;;28.30;99.90;;;;;;1900184;74;21145;-75
2023/05/10 02:03:16;;;;;;;11.33;8.78;;;28.40;99.90;;;;;;1891978;74;21120;-78
2023/05/10 02:05:49;;;;;;;15.45;9.78;;;28.60;99.90;;;;;;1888808;74;21147;-80
2023/05/10 02:08:22;;;;;;;11.08;8.88;;;28.70;99.90;;;;;;1890099;74;21123;-76
2023/05/10 02:10:55;;;;;;;12.10;9.00;;;28.80;99.90;;;;;;1882827;75;21170;-78
2023/05/10 02:13:28;;;;;;;11.60;9.38;;;28.90;99.90;;;;;;1886835;74;21446;-76
2023/05/10 02:16:00;;;;;;;13.72;9.28;;;29.00;99.70;;;;;;1890613;74;21174;-79
2023/05/10 02:18:32;;;;;;;14.13;9.60;;;29.10;99.30;;;;;;1896683;74;21163;-78
2023/05/10 02:21:04;;;;;;;13.20;8.78;;;29.20;99.70;;;;;;1891273;75;21142;-75
2023/05/10 02:23:35;;;;;;;10.32;8.18;;;29.20;99.70;;;;;;1882452;74;21643;-74
2023/05/10 02:26:07;;;;;;;11.55;8.40;;;29.30;99.70;;;;;;1880440;75;21194;-79
2023/05/10 02:28:41;;;;;;;10.68;7.97;;;29.40;99.50;;;;;;1882179;75;21224;-76
2023/05/10 02:31:13;;;;;;;15.78;8.95;;;29.40;98.80;;;;;;1878788;75;21147;-75
2023/05/10 02:33:45;;;;;;;11.83;8.38;;;29.50;98.60;;;;;;1889455;74;21564;-76
2023/05/10 02:36:20;;;;;;;13.00;8.30;;;29.60;98.60;;;;;;1896132;74;21096;-75
2023/05/10 02:38:53;;;;;;;8.35;7.00;;;29.60;98.20;;;;;;1893738;74;21143;-75
2023/05/10 02:41:24;;;;;;;11.45;7.67;;;29.70;98.10;;;;;;1891671;75;21816;-74
2023/05/10 02:43:58;;;;;;;8.33;7.42;;;29.70;97.80;;;;;;1895652;74;21120;-76
2023/05/10 02:46:29;;;;;;;9.50;7.20;;;29.80;97.30;;;;;;1889669;74;21143;-74
2023/05/10 02:49:01;;;;;;;8.60;7.58;;;29.90;96.40;;;;;;1858869;77;21101;-75
2023/05/10 02:51:34;;;;;;;13.55;7.35;;;29.90;96.30;;;;;;1883595;76;21998;-76
2023/05/10 02:54:08;;;;;;;10.45;7.22;;;30.00;96.30;;;;;;1876908;75;21154;-78
2023/05/10 02:56:41;;;;;;;8.93;7.08;;;30.00;95.60;;;;;;1871145;75;21103;-78
2023/05/10 02:59:13;;;;;;;10.15;7.35;;;30.20;95.40;;;;;;1919110;73;21064;-81
2023/05/10 03:01:44;;;;;;;11.22;7.22;;;30.10;95.50;;;;;;1881791;75;21693;-79
2023/05/10 03:04:15;;;;;;;8.83;6.97;;;30.20;95.90;;;;;;1881648;75;21599;-76
2023/05/10 03:06:47;;;;;;;11.18;6.78;;;30.30;95.30;;;;;;1861643;75;21131;-78
2023/05/10 03:09:18;;;;;;;7.37;6.40;;;30.40;95.00;;;;;;1898256;74;21189;-80
2023/05/10 03:12:11;;;;;;;10.20;6.80;;;30.50;94.70;;;;;;1850119;77;21655;-80
2023/05/10 03:14:59;;;;;;;9.05;6.33;;;30.60;94.70;;;;;;1927356;74;21514;-79
2023/05/10 03:17:38;;;;;;;7.53;6.25;;;30.70;94.80;;;;;;1897591;74;21607;-79
2023/05/10 03:20:15;;;;;;;11.03;7.87;;;30.90;94.30;;;;;;1890225;74;21627;-77
2023/05/10 03:22:52;;;;;;;9.05;6.87;;;31.10;93.90;;;;;;1897268;75;21124;-79
2023/05/10 03:25:25;;;;;;;7.22;6.40;;;31.10;93.50;;;;;;1896698;74;21080;-75
2023/05/10 03:27:57;;;;;;;11.85;6.95;;;31.20;93.20;;;;;;1874785;75;21175;-78
2023/05/10 03:30:29;;;;;;;7.58;6.78;;;31.30;93.40;;;;;;1846918;77;21270;-77
2023/05/10 03:33:01;;;;;;;10.82;7.05;;;31.20;93.10;;;;;;1922279;74;21114;-79
2023/05/10 03:35:32;;;;;;;8.60;7.35;;;31.30;93.80;;;;;;1892639;75;21183;-79
2023/05/10 03:38:03;;;;;;;11.05;7.22;;;31.30;93.90;;;;;;1909412;74;21113;-79
2023/05/10 03:40:34;;;;;;;9.28;6.75;;;31.50;93.80;;;;;;1888108;74;21167;-78
2023/05/10 03:43:05;;;;;;;10.63;8.00;;;31.60;93.00;;;;;;1882687;76;21187;-79
2023/05/10 03:45:36;;;;;;;10.60;7.67;;;31.80;92.50;;;;;;1875534;74;22428;-79
2023/05/10 03:48:07;;;;;;;9.00;7.55;;;31.90;92.80;;;;;;1835298;77;21542;-77
2023/05/10 03:50:38;;;;;;;10.85;7.87;;;32.00;92.60;;;;;;1919888;74;21094;-78
2023/05/10 03:53:09;;;;;;;10.98;7.78;;;32.00;92.20;;;;;;1870531;75;21727;-79
2023/05/10 03:55:40;;;;;;;9.15;7.00;;;32.00;92.10;;;;;;1869208;76;21182;-80
2023/05/10 03:58:12;;;;;;;11.40;7.53;;;31.90;92.20;;;;;;1903875;74;21099;-78
2023/05/10 04:00:48;;;;;;;13.48;7.60;;;31.80;92.40;;;;;;1893964;74;21155;-78
2023/05/10 04:03:15;;;;;;;10.13;7.83;;;31.70;92.90;;;;;;1886770;75;21131;-79
2023/05/10 04:05:46;;;;;;;10.78;7.75;;;31.70;92.90;;;;;;1893634;75;21535;-82
2023/05/10 04:08:17;;;;;;;11.38;8.35;;;31.70;93.10;;;;;;1905299;74;21092;-83
2023/05/10 04:10:48;;;;;;;12.55;8.45;;;31.80;93.10;;;;;;1899147;75;21155;-79
2023/05/10 04:13:19;;;;;;;10.50;7.60;;;32.00;92.60;;;;;;1900331;73;21572;-78
2023/05/10 04:15:51;;;;;;;11.33;8.83;;;32.10;92.10;;;;;;1881508;75;21583;-78
2023/05/10 04:18:21;;;;;;;14.30;8.60;;;32.30;91.10;;;;;;1891795;74;21127;-80
2023/05/10 04:20:52;;;;;;;11.20;7.55;;;32.30;90.90;;;;;;1874672;75;21154;-79
2023/05/10 04:23:23;;;;;;;16.27;8.78;;;32.40;91.00;;;;;;1878835;76;21153;-82
2023/05/10 04:25:55;;;;;;;9.73;8.33;;;32.40;91.10;;;;;;1888812;74;21139;-78
2023/05/10 04:28:27;;;;;;;12.33;9.18;;;32.40;91.40;;;;;;1889392;74;21218;-81
2023/05/10 04:31:05;;;;;;;11.80;8.48;;;32.40;91.50;;;;;;1889817;74;21112;-78
2023/05/10 04:33:36;;;;;;;10.63;8.70;;;32.60;91.60;;;;;;1899623;74;21168;-79
2023/05/10 04:36:28;;;;;;;11.48;8.43;;;32.80;91.20;;;;;;1878489;75;21092;-78
2023/05/10 04:39:00;;;;;;;9.83;8.25;;;32.80;90.70;;;;;;1873602;75;21178;-80
2023/05/10 04:41:31;;;;;;;12.73;8.30;;;32.80;90.90;;;;;;1881928;75;21134;-80
2023/05/10 04:44:02;;;;;;;10.48;9.38;;;32.80;90.60;;;;;;1879353;75;21227;-76
2023/05/10 04:46:56;;;;;;;11.35;9.50;;;32.90;90.90;;;;;;1871857;75;21590;-79
2023/05/10 04:49:28;;;;;;;9.35;8.35;;;32.90;90.50;;;;;;1869770;75;21156;-77
2023/05/10 04:51:59;;;;;;;10.10;8.88;;;32.70;90.60;;;;;;1872216;75;21138;-78
2023/05/10 04:54:29;;;;;;;12.35;9.10;;;32.60;91.00;;;;;;1888967;75;21249;-78
2023/05/10 04:57:01;;;;;;;10.98;8.98;;;32.60;91.20;;;;;;1884615;75;21145;-78
2023/05/10 04:59:31;;;;;;;11.90;9.23;;;32.50;90.60;;;;;;1897247;75;21215;-77
2023/05/10 05:02:03;;;;;;;10.43;8.73;;;32.50;91.40;;;;;;1891462;75;21129;-78
2023/05/10 05:04:34;;;;;;;10.65;9.53;;;32.40;90.60;;;;;;1816736;76;21094;-78
2023/05/10 05:07:05;;;;;;;11.25;10.00;;;32.40;91.10;;;;;;1842166;77;21399;-75
2023/05/10 05:09:36;;;;;;;12.75;9.65;;;32.40;91.10;;;;;;1867051;75;21121;-76
2023/05/10 05:12:07;;;;;;;10.58;9.20;;;32.40;91.00;;;;;;1872041;75;21212;-77
2023/05/10 05:14:38;;;;;;;11.40;9.38;;;32.40;91.80;;;;;;1861005;75;21101;-78
2023/05/10 05:17:08;;;;;;;10.70;9.60;;;32.70;90.80;;;;;;1852750;76;21554;-77
2023/05/10 05:19:39;;;;;;;10.43;8.98;;;32.70;90.80;;;;;;1849473;77;21164;-78
2023/05/10 05:22:10;;;;;;;11.55;9.00;;;32.80;90.80;;;;;;1884294;75;21098;-77
2023/05/10 05:24:41;;;;;;;11.00;9.35;;;32.70;90.20;;;;;;1862489;76;21147;-78
2023/05/10 05:27:12;;;;;;;11.75;10.45;;;32.60;91.00;;;;;;1844157;77;21205;-80
2023/05/10 05:29:43;;;;;;;10.72;9.60;;;32.60;91.50;;;;;;1831620;77;21132;-79
2023/05/10 05:32:13;;;;;;;11.48;10.13;;;32.50;90.20;;;;;;1832616;77;21107;-77
2023/05/10 05:34:46;;;;;;;11.53;10.18;;;32.60;90.50;;;;;;1832395;77;21128;-77
2023/05/10 05:37:22;;;;;;;11.28;10.00;;;32.60;90.60;;;;;;1878743;74;21172;-76
2023/05/10 05:39:54;;;;;;;11.57;9.43;;;32.60;90.20;;;;;;1868092;76;21117;-76
2023/05/10 05:42:25;;;;;;;10.50;8.73;;;32.60;90.00;;;;;;1900646;74;21079;-79
2023/05/10 05:44:56;;;;;;;11.50;10.08;;;32.60;90.70;;;;;;1898328;74;21163;-76
2023/05/10 05:47:27;;;;;;;11.88;9.63;;;32.70;90.40;;;;;;1902551;75;21130;-79
2023/05/10 05:49:58;;;;;;;11.53;9.50;;;32.80;89.90;;;;;;1902718;75;21076;-77
2023/05/10 05:52:29;;;;;;;12.33;9.20;;;32.80;90.10;;;;;;1907410;74;21161;-79
2023/05/10 05:55:00;;;;;;;10.23;9.20;;;32.80;90.00;;;;;;1866391;76;21628;-78
2023/05/10 05:57:31;;;;;;;13.10;10.32;;;32.90;89.80;;;;;;1898798;74;21107;-76
2023/05/10 06:00:02;;;;;;;10.98;9.15;;;32.90;89.10;;;;;;1903521;74;21197;-77
2023/05/10 06:02:34;;;;;;;14.47;9.78;;;32.90;90.20;;;;;;1917239;74;21127;-80
2023/05/10 06:05:05;;;;;;;11.75;9.95;;;32.90;90.00;;;;;;1915845;74;21145;-78
2023/05/10 06:07:36;;;;;;;12.60;9.90;;;33.00;90.00;;;;;;1929978;74;21142;-79
2023/05/10 06:10:08;;;;;;;11.30;10.10;;;33.10;89.80;;;;;;1898992;74;21116;-79
2023/05/10 06:12:39;;;;;;;12.73;9.98;;;33.10;88.90;;;;;;1893745;74;21753;-82
2023/05/10 06:15:11;;;;;;;12.75;9.43;;;33.10;89.70;;;;;;1861998;76;21113;-80
2023/05/10 06:17:43;;;;;;;11.85;9.80;;;33.20;89.50;;;;;;1914143;74;21173;-80
2023/05/10 06:20:14;;;;;;;12.33;9.98;;;33.20;88.50;;;;;;1915675;74;21696;-79
2023/05/10 06:22:46;;;;;;;11.85;9.90;;;33.20;90.00;;;;;;1902437;74;21227;-81
2023/05/10 06:25:17;;;;;;;11.95;9.93;;;33.40;88.10;;;;;;1884360;76;21084;-80
2023/05/10 06:27:50;;;;;;;12.13;10.70;;;33.40;88.10;;;;;;1904452;74;21162;-80
2023/05/10 06:30:27;;;;;;;11.63;9.93;;;33.40;87.90;;;;;;1894719;74;21162;-78
2023/05/10 06:32:55;;;;;;;12.40;10.65;;;33.40;88.50;;;;;;1888396;75;21103;-78
2023/05/10 06:35:26;;;;;;;12.63;10.72;;;33.40;87.30;;;;;;1905004;74;21776;-75
2023/05/10 06:37:58;;;;;;;16.87;10.23;;;33.40;87.20;;;;;;1903150;74;21114;-80
2023/05/10 06:40:29;;;;;;;12.60;10.55;;;33.30;87.60;;;;;;1881362;75;21100;-80
2023/05/10 06:43:03;;;;;;;11.88;10.18;;;33.20;87.60;;;;;;1882773;75;21662;-77
2023/05/10 06:45:33;;;;;;;10.58;9.45;;;33.10;88.60;;;;;;1878881;75;21103;-79
2023/05/10 06:48:05;;;;;;;14.55;10.48;;;33.00;88.40;;;;;;1877400;75;21865;-78
2023/05/10 06:50:36;;;;;;;17.75;11.12;;;33.00;88.60;;;;;;1883502;75;21145;-76
2023/05/10 06:53:07;;;;;;;14.23;11.20;;;32.90;89.00;;;;;;1878276;75;21109;-73
2023/05/10 06:55:39;;;;;;;13.03;10.58;;;33.00;89.00;;;;;;1885391;75;21062;-81
2023/05/10 06:58:10;;;;;;;11.75;10.55;;;33.00;88.50;;;;;;1873043;75;21154;-80
2023/05/10 07:00:43;;;;;;;12.95;11.03;;;32.90;88.70;;;;;;1883796;75;21133;-80
2023/05/10 07:03:14;;;;;;;15.05;10.20;;;33.00;88.40;;;;;;1888098;75;21715;-77
2023/05/10 07:05:45;;;;;;;15.30;11.50;;;33.10;89.40;;;;;;1880919;75;21149;-78
2023/05/10 07:08:16;;;;;;;14.15;11.38;;;33.20;87.40;;;;;;1883302;75;21633;-80
2023/05/10 07:10:47;;;;;;;13.15;10.10;;;33.40;87.00;;;;;;1886418;75;21117;-76
2023/05/10 07:13:19;;;;;;;13.62;10.40;;;33.40;86.20;;;;;;1884295;75;21258;-80
2023/05/10 07:15:50;;;;;;;13.90;10.05;;;33.50;86.90;;;;;;1878602;75;21662;-78
2023/05/10 07:18:30;;;;;;;15.53;11.10;;;33.50;86.10;;;;;;1883102;75;21141;-79
2023/05/10 07:21:00;;;;;;;12.73;9.33;;;33.50;86.70;;;;;;1878303;75;21086;-79
2023/05/10 07:23:49;;;;;;;12.63;10.00;;;33.60;86.90;;;;;;1848780;76;21232;-77
2023/05/10 07:26:18;;;;;;;12.35;10.75;;;33.60;86.50;;;;;;1835843;77;21173;-78
2023/05/10 07:28:49;;;;;;;11.55;10.35;;;33.70;86.50;;;;;;1836317;76;21658;-78
2023/05/10 07:31:19;;;;;;;11.30;10.13;;;33.70;85.30;;;;;;1836690;76;21216;-75
2023/05/10 07:33:50;;;;;;;12.07;10.18;;;33.70;85.80;;;;;;1833532;78;21190;-77
2023/05/10 07:36:21;;;;;;;15.43;11.35;;;33.60;85.40;;;;;;1839208;76;21126;-75
2023/05/10 07:38:52;;;;;;;12.03;10.80;;;33.60;85.70;;;;;;1836574;76;21728;-78
2023/05/10 07:41:24;;;;;;;11.60;10.40;;;33.70;85.80;;;;;;1868663;75;21622;-76
2023/05/10 07:43:55;;;;;;;12.70;10.72;;;33.70;85.30;;;;;;1887255;75;21177;-74
2023/05/10 07:46:25;;;;;;;11.35;10.25;;;33.70;85.10;;;;;;1865423;75;21115;-77
2023/05/10 07:48:57;;;;;;;11.40;10.20;;;33.70;85.40;;;;;;1860977;76;21630;-77
2023/05/10 07:51:28;;;;;;;14.98;10.80;;;33.80;85.60;;;;;;1877872;75;21131;-78
2023/05/10 07:53:59;;;;;;;12.40;10.58;;;33.80;86.80;;;;;;1888554;75;21708;-76
2023/05/10 07:56:32;;;;;;;14.18;10.72;;;33.90;85.10;;;;;;1871437;75;21194;-77
2023/05/10 07:59:06;;;;;;;11.35;10.20;;;33.90;84.90;;;;;;1877192;75;21118;-79
2023/05/10 08:01:37;;;;;;;13.90;10.30;;;33.90;84.70;;;;;;1875010;75;21149;-77
2023/05/10 08:04:11;;;;;;;12.65;10.10;;;33.90;83.80;;;;;;1877329;75;21094;-78
2023/05/10 08:06:42;;;;;;;12.40;10.63;;;34.00;83.10;;;;;;1870103;75;21098;-77
2023/05/10 08:09:14;;;;;;;13.03;10.72;;;34.00;83.80;;;;;;1882065;75;21176;-78
2023/05/10 08:11:45;;;;;;;10.78;9.70;;;34.00;84.10;;;;;;1878605;75;21115;-77
2023/05/10 08:14:15;;;;;;;11.75;9.65;;;34.00;82.50;;;;;;1833802;77;21135;-77
2023/05/10 08:16:46;;;;;;;13.55;9.98;;;34.00;82.70;;;;;;1877813;75;21094;-78
2023/05/10 08:19:21;;;;;;;12.55;9.83;;;34.00;82.70;;;;;;1879826;75;21141;-73
2023/05/10 08:21:52;;;;;;;10.28;9.13;;;34.00;82.30;;;;;;1832937;77;21586;-76
2023/05/10 08:24:23;;;;;;;10.38;9.25;;;34.00;81.80;;;;;;1881396;75;21929;-77
2023/05/10 08:26:54;;;;;;;12.82;10.60;;;34.00;82.00;;;;;;1839250;77;21248;-79
2023/05/10 08:29:25;;;;;;;13.60;9.95;;;34.00;81.70;;;;;;1881000;75;21189;-77
2023/05/10 08:31:57;;;;;;;11.65;9.25;;;34.00;81.80;;;;;;1840230;77;21911;-80
2023/05/10 08:34:30;;;;;;;12.82;10.78;;;34.10;79.70;;;;;;1887163;75;21577;-83
2023/05/10 08:37:02;;;;;;;14.07;10.20;;;34.10;80.80;;;;;;1880747;75;21171;-76
2023/05/10 08:39:38;;;;;;;11.10;9.95;;;34.10;81.30;;;;;;1859126;75;21125;-79
2023/05/10 08:42:15;;;;;;;12.70;10.85;;;34.10;81.00;;;;;;1867729;75;21612;-81
2023/05/10 08:44:49;;;;;;;14.70;11.20;;;34.00;81.30;;;;;;1879944;75;21138;-77
2023/05/10 08:47:20;;;;;;;14.23;10.72;;;34.00;81.40;;;;;;1878786;75;21639;-78
2023/05/10 08:49:53;;;;;;;14.40;10.60;;;33.90;82.00;;;;;;1886527;75;21123;-77
2023/05/10 08:52:26;;;;;;;11.33;8.58;;;33.90;81.90;;;;;;1882347;75;21094;-75
2023/05/10 08:54:57;;;;;;;10.50;8.63;;;33.90;83.20;;;;;;1834785;77;21158;-78
2023/05/10 08:57:32;;;;;;;15.45;9.55;;;33.90;83.80;;;;;;1876538;75;21240;-78
2023/05/10 09:00:03;;;;;;;13.30;9.50;;;33.90;84.30;;;;;;1880710;75;21640;-77
2023/05/10 09:02:34;;;;;;;13.50;10.32;;;33.80;84.50;;;;;;1830932;77;21130;-79
2023/05/10 09:05:05;;;;;;;12.18;9.63;;;33.80;84.50;;;;;;1875705;75;21456;-78
2023/05/10 09:07:37;;;;;;;12.25;9.65;;;33.70;84.40;;;;;;1845610;77;21107;-78
2023/05/10 09:10:09;;;;;;;12.60;11.30;;;33.70;85.00;;;;;;1873022;75;21718;-79
2023/05/10 09:12:40;;;;;;;13.70;10.40;;;33.60;85.30;;;;;;1871074;75;21129;-78
2023/05/10 09:15:11;;;;;;;12.07;9.58;;;33.50;85.50;;;;;;1876452;75;21568;-77
2023/05/10 09:17:44;;;;;;;14.35;10.30;;;33.60;85.80;;;;;;1837568;77;21107;-79
2023/05/10 09:20:36;;;;;;;11.38;9.70;;;33.50;85.30;;;;;;1866281;75;21555;-76
2023/05/10 09:23:15;;;;;;;14.33;12.82;;;33.40;85.00;;;;;;1875842;75;21790;-78
2023/05/10 09:26:25;;;;;;;11.45;9.98;;;33.30;85.50;;;;;;1888464;75;21215;-76
2023/05/10 09:29:15;;;;;;;10.23;9.18;;;33.20;86.10;;;;;;1838953;77;21301;-80
2023/05/10 09:32:06;;;;;;;11.22;10.03;;;33.10;86.20;;;;;;1886850;75;21208;-78
2023/05/10 09:34:52;;;;;;;12.77;9.80;;;33.10;86.70;;;;;;1880271;75;21246;-76
2023/05/10 09:37:26;;;;;;;14.33;10.72;;;33.00;86.80;;;;;;1875464;75;21566;-76
2023/05/10 09:40:22;;;;;;;13.70;10.30;;;33.00;86.40;;;;;;1882551;74;21122;-78
2023/05/10 09:43:11;;;;;;;11.53;10.28;;;32.90;86.10;;;;;;1873522;75;21207;-78
2023/05/10 09:46:06;;;;;;;12.40;9.80;;;32.90;86.20;;;;;;1862808;75;21236;-78
2023/05/10 09:48:54;;;;;;;12.18;8.98;;;32.80;85.10;;;;;;1827355;77;21150;-78
2023/05/10 09:51:45;;;;;;;13.72;9.63;;;32.80;85.80;;;;;;1822884;77;21199;-78
2023/05/10 09:54:37;;;;;;;12.18;9.73;;;32.80;85.60;;;;;;1868151;75;21237;-75
2023/05/10 09:57:26;;;;;;;14.33;10.90;;;32.70;85.40;;;;;;1830743;77;21235;-77
2023/05/10 10:00:21;;;;;;;13.53;10.00;;;32.60;85.30;;;;;;1872132;75;21154;-78
2023/05/10 10:03:19;;;;;;;11.35;9.33;;;32.60;85.70;;;;;;1868370;75;21228;-74
2023/05/10 10:05:51;;;;;;;14.13;10.80;;;32.50;85.10;;;;;;1834158;77;21141;-76
2023/05/10 10:08:39;;;;;;;14.18;10.20;;;32.50;84.90;;;;;;1830028;77;21174;-77
2023/05/10 10:11:11;;;;;;;20.00;11.93;;;32.50;85.30;;;;;;1828691;77;21541;-77
2023/05/10 10:14:00;;;;;;;18.10;9.88;;;32.40;85.70;;;;;;1828513;77;21195;-74
2023/05/10 10:16:52;;;;;;;14.73;10.30;;;32.50;85.50;;;;;;1874528;75;21095;-76
2023/05/10 10:19:43;;;;;;;15.88;10.38;;;32.40;85.20;;;;;;1870976;75;21095;-77
2023/05/10 10:22:19;;;;;;;17.60;10.23;;;32.40;85.60;;;;;;1866308;75;21165;-75
2023/05/10 10:25:09;;;;;;;13.70;10.05;;;32.30;85.90;;;;;;1872187;75;21192;-79
2023/05/10 10:27:51;;;;;;;12.03;9.45;;;32.30;86.50;;;;;;1874181;75;21620;-75
2023/05/10 10:30:42;;;;;;;13.25;9.70;;;32.20;87.50;;;;;;1828118;77;21240;-79
2023/05/10 10:33:30;;;;;;;13.60;8.63;;;31.80;89.00;;;;;;1871506;75;21182;-79
2023/05/10 10:36:03;;;;;;;9.28;7.80;;;31.50;90.30;;;;;;1864504;76;21162;-76
2023/05/10 10:38:48;;;;;;;9.98;7.28;;;31.20;90.90;;;;;;1870608;76;21100;-79
2023/05/10 10:41:37;;;;;;;10.30;7.58;;;31.00;91.30;;;;;;1888190;74;21192;-74
2023/05/10 10:47:42;;;;;;;9.98;5.45;;;30.60;92.10;;;;;;1834610;77;21198;-88
2023/05/10 10:50:15;;;;;;;8.87;6.73;;;30.40;92.40;;;;;;1868063;75;21280;-89
2023/05/10 10:52:52;;;;;;;9.08;7.12;;;30.20;92.90;;;;;;1865521;75;21420;-87
2023/05/10 10:55:26;;;;;;;8.10;6.80;;;30.10;93.30;;;;;;1881788;74;21095;-87
2023/05/10 10:58:04;;;;;;;9.60;6.55;;;30.10;93.30;;;;;;1858619;77;21127;-87
2023/05/10 11:01:20;;;;;;;12.73;7.15;;;30.10;93.40;;;;;;1921358;74;21068;-85
2023/05/10 11:04:03;;;;;;;12.60;7.28;;;30.10;93.40;;;;;;1900448;74;21107;-88
2023/05/10 11:06:46;;;;;;;10.78;7.42;;;30.10;93.50;;;;;;1865841;75;21142;-88
2023/05/10 11:09:29;;;;;;;12.75;7.03;;;30.10;93.30;;;;;;1898709;75;21150;-88
2023/05/10 11:12:24;;;;;;;11.13;7.23;;;30.10;93.50;;;;;;1889456;76;21163;-88
2023/05/10 11:15:23;;;;;;;12.45;6.87;;;30.10;93.50;;;;;;1860670;75;21906;-88
2023/05/10 11:18:20;;;;;;;12.88;7.28;;;29.90;93.80;;;;;;1858199;75;21139;-89
2023/05/10 11:23:49;;;;;;;11.65;7.92;;;30.00;94.00;;;;;;1868699;74;21098;-88
2023/05/10 11:26:40;;;;;;;12.13;7.65;;;30.00;93.90;;;;;;1859809;75;21213;-87
2023/05/10 11:29:32;;;;;;;11.63;7.90;;;29.90;94.00;;;;;;1872974;76;21193;-88
2023/05/10 11:35:12;;;;;;;11.18;7.60;;;29.90;94.00;;;;;;1807214;76;21436;-87
2023/05/10 11:37:45;;;;;;;16.67;8.15;;;29.80;94.50;;;;;;1864169;75;21588;-89
2023/05/10 11:40:29;;;;;;;14.15;8.50;;;29.80;94.60;;;;;;1887660;75;21244;-87
2023/05/10 11:43:08;;;;;;;12.30;8.80;;;29.80;94.60;;;;;;1878856;76;21170;-88
2023/05/10 11:45:57;;;;;;;11.15;8.05;;;29.90;94.60;;;;;;1858935;75;21105;-87
2023/05/10 11:48:48;;;;;;;10.32;7.90;;;29.90;94.60;;;;;;1846411;76;21063;-89
2023/05/10 11:51:48;;;;;;;12.20;8.43;;;29.90;94.30;;;;;;1847655;76;21164;-87
2023/05/10 11:54:22;;;;;;;12.18;8.85;;;29.90;94.30;;;;;;1836691;76;21149;-88
2023/05/10 11:56:58;;;;;;;13.60;8.88;;;29.80;94.60;;;;;;1841033;77;21244;-87
2023/05/10 11:59:47;;;;;;;11.63;9.33;;;29.80;94.90;;;;;;1806443;78;21244;-87
2023/05/10 12:02:39;;;;;;;20.65;11.30;;;29.70;95.00;;;;;;1826887;76;21207;-87
2023/05/10 12:05:29;;;;;;;16.07;9.05;;;29.70;95.10;;;;;;1845282;77;21071;-86
2023/05/10 12:08:21;;;;;;;14.75;9.50;;;29.60;95.20;;;;;;1807404;78;21594;-87
2023/05/10 12:11:05;;;;;;;12.45;9.03;;;29.60;95.20;;;;;;1813617;78;21181;-86
2023/05/10 12:13:40;;;;;;;;;;;29.70;95.10;;;;;;1838891;77;21618;-89
2023/05/10 12:16:33;;;;;;;10.25;8.05;;;29.70;95.00;;;;;;1863665;77;20204;-86
2023/05/10 12:19:05;;;;;;;14.00;8.38;;;29.80;94.90;;;;;;1837999;77;21177;-87
2023/05/10 12:21:38;;;;;;;13.10;7.72;;;29.80;94.80;;;;;;1854189;76;21188;-87
2023/05/10 12:24:16;;;;;;;12.93;7.20;;;29.80;94.80;;;;;;1834374;76;21203;-90
2023/05/10 12:27:07;;;;;;;10.85;7.10;;;29.80;94.80;;;;;;1813967;78;21200;-87
2023/05/10 12:29:44;;;;;;;11.75;7.12;;;29.70;94.80;;;;;;1841850;77;21114;-88
2023/05/10 12:33:10;;;;;;;10.82;6.78;;;29.70;94.70;;;;;;1847159;76;21100;-87
2023/05/10 12:35:50;;;;;;;11.78;6.45;;;29.70;94.60;;;;;;1760483;80;21147;-87
2023/05/10 12:38:43;;;;;;;;;;;29.60;94.40;;;;;;1810909;79;21285;-86
2023/05/10 12:41:17;;;;;;;10.48;7.30;;;29.60;94.50;;;;;;1808388;79;20521;-87
2023/05/10 12:44:01;;;;;;;12.60;7.95;;;29.70;94.50;;;;;;1815522;77;21092;-89
2023/05/10 12:47:04;;;;;;;14.18;8.03;;;29.70;94.70;;;;;;1821731;76;21070;-85
2023/05/10 12:49:26;;;;;;;11.48;7.90;;;29.60;94.90;;;;;;1847114;77;21113;-89
2023/05/10 12:52:16;;;;;;;;;;;;;;;;;;;;;
2023/05/10 12:55:11;;;;;;;10.78;7.53;;;29.50;95.10;;;;;;1762798;80;21229;-86
2023/05/10 12:58:07;;;;;;;9.78;7.22;;;29.50;95.10;;;;;;1761151;80;21363;-86
2023/05/10 13:00:44;;;;;;;16.93;8.23;;;29.40;95.20;;;;;;1739167;80;21209;-89
2023/05/10 13:03:11;;;;;;;12.90;8.78;;;29.40;95.10;;;;;;1769910;81;21674;-87
2023/05/10 13:05:46;;;;;;;11.28;7.83;;;29.30;95.10;;;;;;1783502;80;21228;-86
2023/05/10 13:08:23;;;;;;;13.93;7.30;;;29.30;95.20;;;;;;1711030;83;21229;-87
2023/05/10 13:11:27;;;;;;;12.58;7.28;;;29.30;95.30;;;;;;1704576;82;21274;-86
2023/05/10 13:14:06;;;;;;;12.35;6.80;;;29.20;95.40;;;;;;1710137;84;21334;-87
2023/05/10 13:16:42;;;;;;;16.75;12.63;;;29.30;95.50;;;;;;1734529;82;21210;-88
2023/05/10 13:22:58;;;;;;;;;;;;;;;;;;;;;
2023/05/10 13:25:40;;;;;;;9.60;6.40;;;29.30;94.70;;;;;;1758249;80;21190;-93
2023/05/10 13:28:22;;;;;;;8.83;6.75;;;29.40;94.20;;;;;;1754733;80;21158;-91
2023/05/10 13:31:02;;;;;;;12.78;6.22;;;29.40;94.20;;;;;;1792286;79;21178;-92
2023/05/10 13:33:58;;;;;;;9.23;6.35;;;29.30;94.10;;;;;;1769455;79;21657;-91
2023/05/10 13:36:41;;;;;;;9.23;6.10;;;29.30;94.00;;;;;;1778885;79;21169;-93
2023/05/10 13:42:40;;;;;;;10.38;6.12;;;29.20;93.80;;;;;;1689693;82;21317;-91